createdAt,value
2024-03-05T00:01:47.081Z,64.20
2024-03-05T00:04:14.606Z,64.00
2024-03-05T00:06:41.831Z,64.00
2024-03-05T00:09:09.105Z,64.50
2024-03-05T00:11:40.272Z,63.60
2024-03-05T00:14:09.216Z,64.00
2024-03-05T00:16:36.334Z,63.80
2024-03-05T00:19:03.314Z,63.80
2024-03-05T00:21:32.422Z,63.90
2024-03-05T00:24:01.410Z,64.40
2024-03-05T00:26:28.353Z,64.60
2024-03-05T00:28:57.387Z,64.00
2024-03-05T00:31:24.370Z,64.20
2024-03-05T00:33:51.353Z,64.30
2024-03-05T00:36:18.339Z,64.90
2024-03-05T00:38:45.282Z,65.10
2024-03-05T00:41:12.537Z,64.70
2024-03-05T00:43:39.689Z,64.40
2024-03-05T00:46:07.261Z,64.90
2024-03-05T00:48:35.126Z,64.70
2024-03-05T00:51:02.119Z,65.30
2024-03-05T00:53:29.059Z,65.00
2024-03-05T00:55:56.936Z,64.90
2024-03-05T00:58:24.116Z,64.80
2024-03-05T01:00:51.068Z,65.20
2024-03-05T01:03:18.802Z,65.40
2024-03-05T01:05:46.414Z,65.70
2024-03-05T01:08:14.275Z,65.50
2024-03-05T01:10:42.861Z,65.50
2024-03-05T01:13:10.190Z,65.80
2024-03-05T01:15:37.877Z,65.40
2024-03-05T01:18:05.670Z,65.90
2024-03-05T01:20:32.652Z,65.70
2024-03-05T01:22:59.837Z,65.70
2024-03-05T01:25:26.801Z,65.60
2024-03-05T01:27:53.732Z,65.60
2024-03-05T01:30:21.320Z,65.70
2024-03-05T01:32:49.782Z,65.70
2024-03-05T01:35:19.424Z,65.50
2024-03-05T01:37:46.765Z,65.80
2024-03-05T01:40:13.887Z,65.70
2024-03-05T01:42:40.897Z,65.80
2024-03-05T01:45:08.568Z,65.70
2024-03-05T01:47:36.860Z,65.90
2024-03-05T01:50:05.132Z,65.90
2024-03-05T01:52:32.725Z,65.70
2024-03-05T01:55:11.278Z,65.80
2024-03-05T01:57:38.875Z,65.60
2024-03-05T02:00:08.804Z,65.80
2024-03-05T02:02:35.734Z,65.90
2024-03-05T02:05:03.369Z,66.00
2024-03-05T02:07:30.531Z,66.10
2024-03-05T02:09:58.259Z,66.00
2024-03-05T02:12:25.233Z,65.70
2024-03-05T02:14:52.737Z,66.00
2024-03-05T02:17:19.955Z,65.90
2024-03-05T02:19:48.611Z,66.00
2024-03-05T02:22:15.633Z,65.90
2024-03-05T02:24:42.702Z,66.00
2024-03-05T02:27:12.101Z,65.80
2024-03-05T02:29:42.222Z,65.80
2024-03-05T02:32:11.759Z,65.60
2024-03-05T02:34:39.410Z,65.70
2024-03-05T02:37:06.497Z,66.10
2024-03-05T02:39:34.434Z,65.60
2024-03-05T02:42:02.726Z,65.90
2024-03-05T02:44:30.853Z,65.10
2024-03-05T02:46:57.929Z,65.20
2024-03-05T02:49:24.964Z,64.80
2024-03-05T02:51:52.938Z,64.70
2024-03-05T02:54:19.960Z,64.90
2024-03-05T02:56:46.886Z,64.70
2024-03-05T02:59:14.250Z,64.50
2024-03-05T03:01:41.198Z,65.20
2024-03-05T03:04:08.211Z,64.90
2024-03-05T03:06:35.125Z,65.00
2024-03-05T03:09:04.308Z,65.30
2024-03-05T03:11:31.515Z,65.10
2024-03-05T03:13:58.572Z,65.10
2024-03-05T03:16:26.458Z,65.00
2024-03-05T03:18:53.521Z,64.90
2024-03-05T03:21:20.436Z,65.20
2024-03-05T03:23:47.357Z,64.60
2024-03-05T03:26:14.406Z,64.70
2024-03-05T03:28:41.461Z,64.70
2024-03-05T03:31:12.233Z,63.90
2024-03-05T03:33:40.445Z,63.30
2024-03-05T03:36:07.715Z,63.30
2024-03-05T03:38:37.484Z,62.80
2024-03-05T03:41:06.825Z,62.50
2024-03-05T03:43:34.038Z,62.30
2024-03-05T03:46:00.991Z,61.90
2024-03-05T03:48:28.007Z,61.10
2024-03-05T03:50:55.090Z,61.60
2024-03-05T03:53:23.263Z,61.20
2024-03-05T03:55:50.253Z,60.90
2024-03-05T03:58:17.273Z,60.80
2024-03-05T04:00:46.172Z,60.80
2024-03-05T04:03:13.162Z,60.70
2024-03-05T04:05:40.128Z,60.40
2024-03-05T04:08:07.476Z,60.70
2024-03-05T04:10:34.487Z,60.20
2024-03-05T04:13:01.472Z,60.30
2024-03-05T04:15:29.130Z,60.10
2024-03-05T04:17:56.534Z,60.60
2024-03-05T04:20:23.485Z,60.40
2024-03-05T04:22:50.651Z,60.20
2024-03-05T04:25:19.216Z,60.80
2024-03-05T04:27:49.085Z,60.70
2024-03-05T04:30:16.345Z,60.60
2024-03-05T04:32:56.548Z,60.90
2024-03-05T04:35:29.431Z,61.30
2024-03-05T04:37:57.708Z,61.40
2024-03-05T04:40:24.848Z,61.80
2024-03-05T04:42:51.994Z,62.40
2024-03-05T04:45:19.335Z,62.30
2024-03-05T04:47:46.548Z,62.60
2024-03-05T04:50:15.823Z,62.80
2024-03-05T04:52:43.995Z,62.40
2024-03-05T04:55:11.449Z,63.40
2024-03-05T04:57:40.206Z,62.90
2024-03-05T05:00:23.743Z,62.90
2024-03-05T05:02:52.846Z,62.70
2024-03-05T05:05:21.328Z,62.70
2024-03-05T05:07:48.818Z,63.20
2024-03-05T05:10:16.137Z,62.40
2024-03-05T05:12:45.218Z,62.40
2024-03-05T05:15:13.584Z,62.40
2024-03-05T05:17:41.216Z,62.30
2024-03-05T05:20:12.024Z,62.70
2024-03-05T05:22:39.436Z,62.30
2024-03-05T05:25:07.605Z,62.00
2024-03-05T05:27:36.400Z,62.00
2024-03-05T05:30:09.184Z,61.80
2024-03-05T05:32:40.794Z,61.50
2024-03-05T05:35:09.221Z,61.50
2024-03-05T05:37:38.296Z,61.10
2024-03-05T05:40:11.054Z,61.00
2024-03-05T05:42:41.349Z,61.10
2024-03-05T05:45:12.556Z,61.10
2024-03-05T05:47:43.639Z,61.60
2024-03-05T05:50:20.316Z,61.70
2024-03-05T05:52:50.205Z,61.80
2024-03-05T05:55:20.812Z,61.80
2024-03-05T05:57:49.239Z,62.10
2024-03-05T06:00:24.276Z,61.80
2024-03-05T06:02:54.910Z,61.90
2024-03-05T06:05:27.598Z,61.80
2024-03-05T06:07:57.606Z,62.00
2024-03-05T06:10:24.928Z,61.80
2024-03-05T06:12:52.542Z,62.30
2024-03-05T06:15:19.659Z,62.30
2024-03-05T06:17:47.230Z,62.30
2024-03-05T06:20:15.720Z,61.90
2024-03-05T06:22:45.567Z,61.80
2024-03-05T06:25:19.412Z,62.00
2024-03-05T06:27:47.064Z,62.10
2024-03-05T06:30:18.627Z,62.10
2024-03-05T06:32:48.982Z,62.20
2024-03-05T06:35:18.117Z,62.10
2024-03-05T06:37:50.229Z,62.00
2024-03-05T06:40:21.518Z,61.50
2024-03-05T06:43:05.786Z,61.70
2024-03-05T06:45:35.955Z,61.40
2024-03-05T06:50:39.722Z,61.40
2024-03-05T06:53:26.487Z,61.60
2024-03-05T06:56:13.336Z,61.80
2024-03-05T06:58:46.016Z,61.30
2024-03-05T07:01:15.492Z,61.50
2024-03-05T07:03:46.184Z,61.00
2024-03-05T07:06:16.598Z,60.90
2024-03-05T07:08:45.717Z,61.40
2024-03-05T07:11:14.228Z,62.50
2024-03-05T07:13:46.568Z,62.10
2024-03-05T07:16:20.739Z,61.80
2024-03-05T07:18:50.432Z,62.10
2024-03-05T07:21:22.882Z,62.00
2024-03-05T07:23:55.034Z,62.40
2024-03-05T07:26:31.012Z,62.40
2024-03-05T07:29:00.274Z,62.10
2024-03-05T07:31:29.745Z,62.00
2024-03-05T07:33:56.866Z,62.40
2024-03-05T07:36:24.114Z,62.60
2024-03-05T07:38:51.483Z,62.50
2024-03-05T07:41:29.736Z,63.00
2024-03-05T07:44:02.492Z,63.20
2024-03-05T07:46:30.692Z,63.40
2024-03-05T07:48:57.717Z,63.30
2024-03-05T07:51:28.928Z,63.10
2024-03-05T07:53:57.368Z,62.60
2024-03-05T07:56:24.533Z,63.00
2024-03-05T07:58:51.703Z,62.80
2024-03-05T08:01:18.713Z,62.80
2024-03-05T08:03:46.043Z,63.20
2024-03-05T08:06:13.560Z,62.90
2024-03-05T08:08:41.969Z,63.20
2024-03-05T08:11:09.237Z,63.50
2024-03-05T08:13:36.805Z,63.30
2024-03-05T08:16:06.693Z,63.60
2024-03-05T08:18:34.844Z,63.30
2024-03-05T08:21:02.928Z,63.70
2024-03-05T08:23:30.163Z,63.20
2024-03-05T08:25:57.630Z,63.50
2024-03-05T08:28:26.010Z,64.00
2024-03-05T08:30:55.315Z,63.90
2024-03-05T08:33:24.542Z,64.50
2024-03-05T08:35:51.681Z,63.90
2024-03-05T08:38:18.794Z,63.50
2024-03-05T08:40:45.828Z,63.60
2024-03-05T08:43:15.680Z,63.10
2024-03-05T08:45:42.637Z,63.50
2024-03-05T08:48:12.018Z,63.40
2024-03-05T08:50:40.940Z,62.80
2024-03-05T08:53:11.092Z,62.90
2024-03-05T08:55:38.285Z,62.60
2024-03-05T08:58:05.629Z,62.70
2024-03-05T09:00:42.117Z,63.70
2024-03-05T09:03:13.356Z,63.40
2024-03-05T09:05:44.279Z,64.00
2024-03-05T09:08:14.013Z,64.00
2024-03-05T09:10:41.372Z,63.90
2024-03-05T09:13:08.451Z,64.00
2024-03-05T09:15:40.412Z,64.10
2024-03-05T09:18:12.660Z,64.70
2024-03-05T09:20:39.591Z,65.40
2024-03-05T09:23:07.119Z,64.90
2024-03-05T09:25:34.318Z,65.20
2024-03-05T09:28:01.935Z,65.00
2024-03-05T09:30:32.535Z,65.00
2024-03-05T09:32:59.915Z,65.20
2024-03-05T09:35:30.784Z,65.50
2024-03-05T09:37:57.756Z,65.60
2024-03-05T09:40:24.841Z,65.30
2024-03-05T09:42:52.090Z,65.30
2024-03-05T09:45:20.076Z,65.50
2024-03-05T09:47:49.357Z,65.60
2024-03-05T09:50:18.438Z,65.80
2024-03-05T09:52:48.445Z,65.80
2024-03-05T09:55:18.789Z,65.50
2024-03-05T09:57:49.009Z,65.40
2024-03-05T10:00:18.592Z,65.40
2024-03-05T10:02:53.388Z,65.40
2024-03-05T10:05:21.167Z,65.50
2024-03-05T10:07:51.123Z,66.40
2024-03-05T10:10:23.044Z,65.50
2024-03-05T10:12:53.876Z,65.10
2024-03-05T10:15:26.530Z,65.60
2024-03-05T10:17:56.817Z,65.90
2024-03-05T10:20:35.151Z,65.70
2024-03-05T10:23:04.893Z,65.60
2024-03-05T10:25:34.479Z,65.40
2024-03-05T10:28:03.358Z,65.40
2024-03-05T10:30:35.972Z,65.30
2024-03-05T10:33:06.410Z,65.50
2024-03-05T10:35:35.134Z,65.60
2024-03-05T10:38:05.039Z,65.20
2024-03-05T10:40:33.935Z,65.30
2024-03-05T10:43:03.877Z,65.50
2024-03-05T10:45:34.007Z,65.50
2024-03-05T10:48:03.073Z,66.00
2024-03-05T10:50:30.720Z,65.90
2024-03-05T10:52:58.825Z,66.00
2024-03-05T10:55:26.165Z,66.90
2024-03-05T10:58:12.983Z,66.10
2024-03-05T11:00:42.139Z,65.80
2024-03-05T11:03:11.286Z,65.80
2024-03-05T11:05:51.759Z,65.80
2024-03-05T11:08:27.556Z,66.00
2024-03-05T11:10:58.774Z,65.40
2024-03-05T11:13:28.413Z,65.30
2024-03-05T11:15:57.381Z,65.40
2024-03-05T11:18:35.077Z,65.20
2024-03-05T11:21:10.678Z,64.90
2024-03-05T11:23:43.098Z,65.10
2024-03-05T11:26:18.661Z,64.10
2024-03-05T11:28:45.743Z,63.80
2024-03-05T11:31:15.944Z,64.20
2024-03-05T11:34:05.096Z,63.90
2024-03-05T11:36:37.572Z,63.00
2024-03-05T11:39:09.277Z,62.10
2024-03-05T11:41:40.979Z,62.30
2024-03-05T11:44:12.804Z,61.50
2024-03-05T11:46:40.747Z,61.40
2024-03-05T11:49:08.701Z,60.90
2024-03-05T11:51:35.906Z,60.60
2024-03-05T11:54:04.722Z,60.40
2024-03-05T11:56:33.088Z,60.70
2024-03-05T11:59:00.700Z,59.70
2024-03-05T12:01:31.349Z,59.60
2024-03-05T12:04:04.873Z,60.20
2024-03-05T12:06:32.255Z,59.40
2024-03-05T12:09:14.360Z,59.50
2024-03-05T12:11:42.218Z,59.40
2024-03-05T12:14:12.296Z,59.50
2024-03-05T12:16:39.367Z,59.50
2024-03-05T12:19:08.115Z,59.40
2024-03-05T12:21:37.774Z,58.80
2024-03-05T12:24:06.358Z,58.70
2024-03-05T12:26:35.583Z,58.20
2024-03-05T12:29:03.598Z,58.30
2024-03-05T12:31:31.024Z,58.00
2024-03-05T12:33:58.020Z,58.00
2024-03-05T12:36:25.038Z,58.00
2024-03-05T12:38:52.205Z,57.70
2024-03-05T12:41:21.205Z,57.40
2024-03-05T12:43:55.560Z,57.70
2024-03-05T12:46:22.963Z,57.50
2024-03-05T12:48:49.932Z,57.50
2024-03-05T12:51:17.514Z,57.50
2024-03-05T12:53:45.301Z,57.60
2024-03-05T12:56:13.560Z,57.70
2024-03-05T12:58:42.320Z,57.80
2024-03-05T13:01:16.371Z,57.30
2024-03-05T13:03:44.749Z,57.30
2024-03-05T13:06:12.507Z,57.30
2024-03-05T13:08:40.697Z,57.30
2024-03-05T13:11:08.302Z,56.90
2024-03-05T13:13:35.320Z,57.20
2024-03-05T13:16:03.313Z,57.10
2024-03-05T13:18:30.274Z,57.10
2024-03-05T13:20:57.643Z,57.40
2024-03-05T13:23:25.592Z,57.50
2024-03-05T13:25:52.600Z,57.70
2024-03-05T13:28:19.700Z,57.50
2024-03-05T13:30:46.686Z,57.80
2024-03-05T13:33:14.577Z,57.40
2024-03-05T13:35:42.149Z,57.50
2024-03-05T13:38:11.488Z,57.50
2024-03-05T13:40:38.843Z,57.90
2024-03-05T13:43:11.332Z,58.50
2024-03-05T13:45:38.863Z,58.90
2024-03-05T13:48:06.441Z,59.30
2024-03-05T13:50:34.163Z,59.50
2024-03-05T13:53:01.445Z,60.00
2024-03-05T13:55:30.233Z,59.70
2024-03-05T13:57:57.593Z,59.60
2024-03-05T14:00:27.435Z,59.80
2024-03-05T14:02:54.601Z,59.80
2024-03-05T14:05:23.077Z,60.20
2024-03-05T14:07:50.502Z,60.00
2024-03-05T14:10:17.859Z,60.00
2024-03-05T14:12:50.550Z,59.70
2024-03-05T14:15:22.350Z,59.20
2024-03-05T14:17:50.525Z,58.70
2024-03-05T14:20:24.404Z,58.60
2024-03-05T14:22:51.776Z,58.90
2024-03-05T14:25:18.764Z,58.90
2024-03-05T14:27:48.780Z,59.10
2024-03-05T14:30:20.877Z,59.60
2024-03-05T14:32:48.394Z,59.70
2024-03-05T14:35:15.726Z,59.60
2024-03-05T14:37:43.700Z,59.40
2024-03-05T14:40:16.392Z,59.10
2024-03-05T14:42:44.876Z,58.70
2024-03-05T14:45:15.528Z,58.60
2024-03-05T14:47:51.211Z,58.70
2024-03-05T14:50:19.152Z,58.70
2024-03-05T14:52:46.182Z,58.60
2024-03-05T14:55:16.355Z,58.70
2024-03-05T14:57:45.986Z,58.40
2024-03-05T15:00:17.361Z,58.50
2024-03-05T15:02:48.691Z,58.60
2024-03-05T15:05:20.446Z,58.60
2024-03-05T15:07:48.707Z,58.60
2024-03-05T15:10:18.427Z,59.00
2024-03-05T15:12:47.570Z,59.30
2024-03-05T15:15:19.043Z,59.40
2024-03-05T15:17:52.422Z,59.80
2024-03-05T15:20:20.131Z,59.90
2024-03-05T15:22:52.264Z,60.10
2024-03-05T15:25:21.580Z,59.90
2024-03-05T15:27:56.360Z,60.10
2024-03-05T15:30:31.074Z,60.20
2024-03-05T15:33:00.323Z,60.30
2024-03-05T15:35:29.923Z,60.30
2024-03-05T15:37:59.215Z,60.00
2024-03-05T15:40:27.131Z,59.80
2024-03-05T15:42:57.273Z,59.70
2024-03-05T15:45:30.094Z,59.80
2024-03-05T15:47:59.457Z,59.80
2024-03-05T15:50:31.069Z,60.30
2024-03-05T15:53:04.258Z,60.40
2024-03-05T15:55:32.962Z,60.60
2024-03-05T15:58:03.248Z,60.60
2024-03-05T16:00:38.284Z,60.70
2024-03-05T16:03:06.446Z,60.40
2024-03-05T16:05:47.165Z,60.20
2024-03-05T16:08:24.983Z,60.70
2024-03-05T16:10:53.693Z,60.20
2024-03-05T16:13:21.735Z,60.40
2024-03-05T16:15:49.519Z,60.10
2024-03-05T16:18:17.477Z,60.50
2024-03-05T16:20:45.324Z,60.80
2024-03-05T16:23:12.509Z,60.70
2024-03-05T16:25:40.884Z,61.10
2024-03-05T16:28:14.421Z,61.10
2024-03-05T16:30:42.621Z,61.30
2024-03-05T16:33:10.620Z,61.40
2024-03-05T16:35:38.080Z,61.50
2024-03-05T16:38:07.051Z,61.70
2024-03-05T16:40:39.462Z,61.50
2024-03-05T16:43:08.024Z,61.30
2024-03-05T16:45:36.530Z,61.10
2024-03-05T16:48:10.779Z,61.20
2024-03-05T16:50:40.010Z,61.30
2024-03-05T16:53:09.011Z,61.50
2024-03-05T16:55:36.866Z,61.70
2024-03-05T16:58:11.188Z,61.40
2024-03-05T17:00:47.894Z,61.40
2024-03-05T17:03:15.265Z,61.90
2024-03-05T17:05:47.303Z,62.00
2024-03-05T17:08:21.155Z,62.00
2024-03-05T17:10:49.506Z,62.10
2024-03-05T17:13:22.461Z,62.30
2024-03-05T17:15:58.411Z,61.80
2024-03-05T17:18:27.928Z,61.90
2024-03-05T17:20:55.312Z,61.70
2024-03-05T17:23:25.874Z,61.80
2024-03-05T17:25:57.032Z,61.60
2024-03-05T17:28:27.897Z,61.60
2024-03-05T17:30:57.146Z,61.30
2024-03-05T17:33:24.206Z,61.30
2024-03-05T17:35:52.979Z,61.10
2024-03-05T17:38:20.220Z,61.40
2024-03-05T17:40:49.457Z,61.10
2024-03-05T17:43:16.562Z,61.40
2024-03-05T17:45:47.281Z,61.40
2024-03-05T17:48:16.287Z,61.60
2024-03-05T17:50:44.502Z,61.80
2024-03-05T17:53:11.597Z,61.80
2024-03-05T17:55:40.186Z,62.00
2024-03-05T17:58:07.194Z,62.00
2024-03-05T18:00:46.423Z,62.00
2024-03-05T18:03:22.159Z,62.40
2024-03-05T18:05:49.915Z,62.50
2024-03-05T18:08:16.925Z,62.60
2024-03-05T18:10:44.291Z,62.70
2024-03-05T18:13:11.611Z,63.10
2024-03-05T18:15:38.876Z,63.20
2024-03-05T18:18:07.487Z,63.40
2024-03-05T18:20:36.426Z,63.20
2024-03-05T18:23:05.823Z,63.30
2024-03-05T18:25:37.106Z,63.10
2024-03-05T18:28:06.126Z,63.20
2024-03-05T18:30:36.133Z,63.20
2024-03-05T18:33:07.966Z,63.00
2024-03-05T18:35:36.397Z,62.90
2024-03-05T18:38:16.817Z,63.10
2024-03-05T18:40:54.376Z,63.20
2024-03-05T18:43:22.567Z,63.30
2024-03-05T18:45:51.357Z,63.30
2024-03-05T18:48:19.444Z,63.40
2024-03-05T18:50:48.596Z,63.50
2024-03-05T18:53:17.522Z,63.50
2024-03-05T18:55:47.186Z,63.60
2024-03-05T18:58:14.524Z,63.60
2024-03-05T19:00:43.245Z,63.70
2024-03-05T19:03:12.070Z,63.60
2024-03-05T19:05:39.474Z,63.80
2024-03-05T19:08:07.779Z,63.80
2024-03-05T19:10:35.431Z,63.80
2024-03-05T19:13:08.860Z,63.70
2024-03-05T19:15:36.124Z,63.80
2024-03-05T19:18:05.568Z,63.80
2024-03-05T19:20:33.312Z,63.70
2024-03-05T19:23:00.635Z,63.60
2024-03-05T19:25:31.591Z,63.50
2024-03-05T19:27:58.697Z,63.40
2024-03-05T19:30:26.417Z,63.50
2024-03-05T19:32:53.496Z,63.40
2024-03-05T19:35:25.980Z,63.60
2024-03-05T19:37:53.266Z,63.60
2024-03-05T19:40:25.577Z,63.80
2024-03-05T19:42:58.922Z,63.80
2024-03-05T19:45:29.357Z,63.90
2024-03-05T19:47:58.937Z,64.60
2024-03-05T19:50:27.439Z,63.80
2024-03-05T19:52:56.911Z,63.70
2024-03-05T19:55:37.661Z,63.90
2024-03-05T19:58:08.605Z,63.60
2024-03-05T20:00:36.752Z,64.00
2024-03-05T20:03:06.038Z,64.10
2024-03-05T20:05:33.094Z,64.20
2024-03-05T20:08:00.099Z,63.60
2024-03-05T20:10:28.773Z,63.50
2024-03-05T20:12:57.699Z,63.40
2024-03-05T20:15:24.820Z,63.10
2024-03-05T20:17:52.523Z,63.10
2024-03-05T20:20:20.689Z,63.00
2024-03-05T20:22:48.932Z,63.10
2024-03-05T20:25:22.675Z,63.40
2024-03-05T20:27:52.123Z,63.50
2024-03-05T20:30:19.723Z,63.40
2024-03-05T20:32:47.324Z,63.50
2024-03-05T20:35:19.779Z,63.60
2024-03-05T20:37:47.930Z,63.80
2024-03-05T20:40:15.531Z,63.80
2024-03-05T20:42:44.188Z,64.20
2024-03-05T20:45:13.013Z,64.40
2024-03-05T20:47:41.520Z,64.50
2024-03-05T20:50:11.135Z,64.50
2024-03-05T20:52:39.012Z,64.40
2024-03-05T20:55:06.496Z,65.20
2024-03-05T20:57:34.565Z,65.00
2024-03-05T21:00:13.157Z,64.60
2024-03-05T21:02:42.145Z,64.80
2024-03-05T21:05:11.169Z,64.50
2024-03-05T21:07:39.099Z,63.90
2024-03-05T21:10:10.666Z,64.60
2024-03-05T21:12:39.525Z,65.00
2024-03-05T21:15:11.736Z,64.00
2024-03-05T21:17:40.453Z,64.80
2024-03-05T21:20:09.049Z,63.80
2024-03-05T21:22:36.634Z,63.20
2024-03-05T21:25:07.101Z,63.90
2024-03-05T21:27:39.582Z,62.70
2024-03-05T21:30:08.673Z,63.10
2024-03-05T21:32:39.115Z,63.20
2024-03-05T21:35:06.883Z,63.70
2024-03-05T21:37:35.818Z,63.20
2024-03-05T21:40:06.156Z,63.20
2024-03-05T21:42:33.979Z,63.10
2024-03-05T21:45:01.668Z,63.20
2024-03-05T21:47:28.910Z,63.10
2024-03-05T21:49:56.156Z,63.10
2024-03-05T21:52:24.326Z,63.40
2024-03-05T21:54:53.072Z,64.20
2024-03-05T21:57:20.823Z,63.50
2024-03-05T21:59:47.905Z,63.50
2024-03-05T22:02:15.028Z,63.20
2024-03-05T22:04:45.218Z,64.10
2024-03-05T22:07:12.624Z,64.20
2024-03-05T22:09:41.216Z,64.40
2024-03-05T22:12:08.322Z,64.30
2024-03-05T22:14:35.825Z,64.20
2024-03-05T22:17:06.256Z,64.00
2024-03-05T22:19:33.510Z,64.10
2024-03-05T22:22:00.409Z,64.10
2024-03-05T22:24:27.497Z,64.10
2024-03-05T22:26:54.402Z,64.00
2024-03-05T22:29:21.433Z,64.20
2024-03-05T22:31:48.414Z,64.10
2024-03-05T22:34:15.966Z,64.30
2024-03-05T22:36:42.925Z,64.20
2024-03-05T22:39:10.047Z,64.30
2024-03-05T22:41:37.025Z,64.30
2024-03-05T22:44:04.118Z,64.30
2024-03-05T22:46:31.119Z,64.40
2024-03-05T22:48:58.376Z,64.70
2024-03-05T22:51:25.669Z,64.80
2024-03-05T22:53:52.734Z,64.90
2024-03-05T22:56:19.699Z,65.10
2024-03-05T22:58:47.123Z,65.00
2024-03-05T23:01:14.133Z,64.90
2024-03-05T23:03:41.157Z,65.00
2024-03-05T23:06:15.551Z,65.10
2024-03-05T23:08:45.859Z,65.20
2024-03-05T23:11:13.114Z,65.20
2024-03-05T23:13:40.243Z,65.10
2024-03-05T23:16:07.560Z,65.30
2024-03-05T23:18:34.476Z,65.20
2024-03-05T23:21:01.416Z,65.20
2024-03-05T23:23:28.483Z,65.30
2024-03-05T23:25:55.457Z,65.40
2024-03-05T23:28:22.541Z,65.40
2024-03-05T23:30:50.392Z,65.40
2024-03-05T23:33:17.640Z,65.50
2024-03-05T23:35:44.755Z,65.40
2024-03-05T23:38:11.867Z,65.40
2024-03-05T23:40:39.000Z,65.60
2024-03-05T23:43:06.970Z,65.70
2024-03-05T23:45:34.294Z,65.80
2024-03-05T23:48:01.364Z,65.80
2024-03-05T23:50:28.340Z,65.80
2024-03-05T23:52:55.421Z,66.10
2024-03-05T23:55:23.100Z,66.20
2024-03-05T23:57:50.159Z,66.00
